Terminal Aerodrome Forecast
Issued by NWS

Home | Current Version | Previous Version | Text Only | Print | Product List | Glossary On
Versions: 1 2 3 4 5 6 7 8 9 10 11 12 13 14 15 16 17 18 19
000
FTUS43 KBIS 240200 AAA
TAFMOT
TAF AMD
KMOT 240234Z 2403/2424 11009KT P6SM SCT120
     FM240900 12012KT P6SM VCTS BKN080CB
     FM241200 12012KT P6SM BKN080
     FM241600 12016KT P6SM SCT250=

USA.gov is the U.S. government's official web portal to all federal, state and local government web resources and services.